METAR Analyzer

一覧表示

Hello, Guest. (Login)

RJSA/AOJ  -  青森

観測日時
2021-08-05 01:47 (UTC) (12分前)
気温
32
露点
24
湿数
8
相対湿度
62.7%
QNH
1008.8hPa
推定現地気圧
985.3hPa
推定海面気圧
1007.3hPa
体感温度
27.1
(無風時)
29.2
HI
37.9
気温前日比
データなし
体感温度前日比
データなし
HI前日比
データなし
水平視程
>10000m
鉛直視程
データなし
雲底高度
No dense clouds
V/I
VMC (VFR)
RVR
No RVR data
卓越風
7kt from 270° (230° ~ 330°)
ガスト
No gust
降水
報告なし
その他の天気
報告なし
少しの(1/8) 積雲 @ 2000ft AGL

RJSA 050147Z 27007KT 230V330 9999 FEW020 32/24 Q1008 RMK 1CU020 A2979

RJSO  -  大湊基地

観測日時
2021-08-05 01:00 (UTC) (59分前)
気温
31
露点
22
湿数
9
相対湿度
58.8%
QNH
1007.8hPa
推定現地気圧
1007.0hPa
推定海面気圧
1007.8hPa
体感温度
25.6
(無風時)
28.2
HI
34.6
気温前日比
+2
体感温度前日比
+0.2
HI前日比
-1
水平視程
>10000m
鉛直視程
データなし
雲底高度
No dense clouds
V/I
VMC (VFR)
RVR
No RVR data
卓越風
7kt from 260° (200° ~ 320°)
ガスト
No gust
降水
報告なし
その他の天気
報告なし
散在する(3/8) 積雲 @ 3000ft AGL / 散在する雲 @ 23000ft AGL

RJSO 050100Z 26007KT 200V320 9999 SCT030 SCT230 31/22 Q1007 RMK 3CU030 A2976

RJSM/MSJ  -  三沢飛行場

観測日時
2021-08-05 01:00 (UTC) (59分前)
気温
30
露点
24
湿数
6
相対湿度
70.3%
QNH
1008.1hPa
推定現地気圧
1003.8hPa
推定海面気圧
1007.9hPa
体感温度
27.2
(無風時)
28.3
HI
35.1
気温前日比
±0
体感温度前日比
+0.9
HI前日比
-2.3
水平視程
>10000m
鉛直視程
データなし
雲底高度
No dense clouds
V/I
VMC (VFR)
RVR
No RVR data
卓越風
1kt from VRB
ガスト
No gust
降水
報告なし
その他の天気
報告なし
少しの(1/8) 積雲 @ 2500ft AGL / 散在する(3/8) 積雲 @ 3000ft AGL

RJSM 050100Z VRB01KT 9999 FEW025 SCT030 30/24 Q1008 RMK 1CU025 3CU030 A2977

RJSH/HHE  -  八戸飛行場

観測日時
2021-08-05 01:00 (UTC) (59分前)
気温
30
露点
24
湿数
6
相対湿度
70.3%
QNH
1008.1hPa
推定現地気圧
1002.6hPa
推定海面気圧
1007.8hPa
体感温度
25.5
(無風時)
28.3
HI
35.1
気温前日比
±0
体感温度前日比
-0.3
HI前日比
-1.1
水平視程
>10000m
鉛直視程
データなし
雲底高度
3000ft AGL
V/I
VMC (VFR)
RVR
No RVR data
卓越風
6kt from 60°
ガスト
No gust
降水
報告なし
その他の天気
報告なし
少しの(1/8) 積雲 @ 2000ft AGL / 隙間のある(6/8) 積雲 @ 3000ft AGL / 隙間のある雲 @ 23000ft AGL

RJSH 050100Z 06006KT 9999 FEW020 BKN030 BKN230 30/24 Q1008 RMK 1CU020 6CU030 A2977

RJSI/HNA  -  花巻

観測日時
2021-08-05 01:00 (UTC) (59分前)
気温
32
露点
24
湿数
8
相対湿度
62.7%
QNH
1008hPa
推定現地気圧
997.3hPa
推定海面気圧
1007.4hPa
体感温度
28
(無風時)
29.2
HI
37.9
気温前日比
+1
体感温度前日比
±0
HI前日比
-1.2
水平視程
>10000m
鉛直視程
データなし
雲底高度
No dense clouds
V/I
VMC (VFR)
RVR
No RVR data
卓越風
2kt from VRB
ガスト
No gust
降水
報告なし
その他の天気
報告なし
少しの雲 @ 3000ft AGL

RJSI 050100Z VRB02KT 9999 FEW030 32/24 Q1008

RJSR/ONJ  -  大館能代

観測日時
2021-08-05 01:00 (UTC) (59分前)
気温
30
露点
25
湿数
5
相対湿度
74.6%
QNH
1008hPa
推定現地気圧
998.0hPa
推定海面気圧
1007.5hPa
体感温度
26
(無風時)
28.7
HI
36.2
気温前日比
-2
体感温度前日比
-2.5
HI前日比
-6.1
水平視程
>10000m
鉛直視程
データなし
雲底高度
3000ft AGL
V/I
VMC (VFR)
RVR
No RVR data
卓越風
5kt from 270° (230° ~ 300°)
ガスト
No gust
降水
報告なし
その他の天気
報告なし
少しの雲 @ 2000ft AGL / 隙間のある雲 @ 3000ft AGL

RJSR 050100Z 27005KT 230V300 9999 FEW020 BKN030 30/25 Q1008

RJSK/AXT  -  秋田

観測日時
2021-08-05 01:08 (UTC) (51分前)
気温
32
露点
24
湿数
8
相対湿度
62.7%
QNH
1008.8hPa
推定現地気圧
997.7hPa
推定海面気圧
1008.1hPa
体感温度
27.7
(無風時)
29.2
HI
37.9
気温前日比
±0
体感温度前日比
+0.6
HI前日比
±0
水平視程
>10000m
鉛直視程
データなし
雲底高度
No dense clouds
V/I
VMC (VFR)
RVR
No RVR data
卓越風
3kt from 240° (120° ~ 300°)
ガスト
No gust
降水
報告なし
その他の天気
報告なし
散在する(4/8) 積雲 @ 2500ft AGL

RJSK 050108Z 24003KT 120V300 9999 SCT025 32/24 Q1008 RMK 4CU025 A2979

RJSS/SDJ  -  仙台

観測日時
2021-08-05 01:00 (UTC) (59分前)
気温
30
露点
25
湿数
5
相対湿度
74.6%
QNH
1008hPa
推定現地気圧
1007.8hPa
推定海面気圧
1008.0hPa
体感温度
26
(無風時)
28.7
HI
36.2
気温前日比
+1
体感温度前日比
+1.2
HI前日比
+1.7
水平視程
>10000m
鉛直視程
データなし
雲底高度
No dense clouds
V/I
VMC (VFR)
RVR
No RVR data
卓越風
5kt from 70° (30° ~ 110°)
ガスト
No gust
降水
報告なし
その他の天気
報告なし
少しの雲 @ 2000ft AGL

RJSS 050100Z 07005KT 030V110 9999 FEW020 30/25 Q1008

RJST  -  松島基地

観測日時
2021-08-05 01:00 (UTC) (59分前)
気温
30
露点
25
湿数
5
相対湿度
74.6%
QNH
1008.5hPa
推定現地気圧
1008.3hPa
推定海面気圧
1008.5hPa
体感温度
26.9
(無風時)
28.7
HI
36.2
気温前日比
±0
体感温度前日比
+0.4
HI前日比
±0
水平視程
>10000m
鉛直視程
データなし
雲底高度
No dense clouds
V/I
VMC (VFR)
RVR
No RVR data
卓越風
2kt from VRB
ガスト
No gust
降水
報告なし
その他の天気
報告なし
少しの(1/8) 層雲 @ 1000ft AGL

RJST 050100Z VRB02KT 9999 FEW010 30/25 Q1008 RMK 1ST010 A2978

RJSU  -  霞目飛行場・駐屯地

観測日時
2021-08-05 01:00 (UTC) (59分前)
気温
31
露点
26
湿数
5
相対湿度
74.8%
QNH
1008.5hPa
推定現地気圧
1007.7hPa
推定海面気圧
1008.5hPa
体感温度
27.4
(無風時)
29.5
HI
39.1
気温前日比
±0
体感温度前日比
-0.3
HI前日比
-1.5
水平視程
>10000m
鉛直視程
データなし
雲底高度
No dense clouds
V/I
VMC (VFR)
RVR
No RVR data
卓越風
4kt from 150°
ガスト
No gust
降水
報告なし
その他の天気
報告なし
少しの(1/8) 層雲 @ 1200ft AGL

RJSU 050100Z 15004KT 9999 FEW012 31/26 Q1008 RMK 1ST012 A2978

RJSY/SYO  -  庄内

観測日時
2021-08-05 01:00 (UTC) (59分前)
気温
31
露点
25
湿数
6
相対湿度
70.5%
QNH
1008hPa
推定現地気圧
1005.4hPa
推定海面気圧
1007.9hPa
体感温度
26.7
(無風時)
29.1
HI
37.7
気温前日比
±0
体感温度前日比
-0.5
HI前日比
-2.9
水平視程
>10000m
鉛直視程
データなし
雲底高度
No dense clouds
V/I
VMC (VFR)
RVR
No RVR data
卓越風
6kt from 330° (290° ~ 10°)
ガスト
No gust
降水
報告なし
その他の天気
報告なし
少しの雲 @ 3000ft AGL

RJSY 050100Z 33006KT 290V010 9999 FEW030 31/25 Q1008

RJSC/GAJ  -  山形

観測日時
2021-08-05 01:00 (UTC) (59分前)
気温
32
露点
25
湿数
7
相対湿度
66.6%
QNH
1008hPa
推定現地気圧
995.5hPa
推定海面気圧
1007.3hPa
体感温度
27.7
(無風時)
29.6
HI
39.2
気温前日比
±0
体感温度前日比
-0.6
HI前日比
±0
水平視程
>10000m
鉛直視程
データなし
雲底高度
No dense clouds
V/I
VMC (VFR)
RVR
No RVR data
卓越風
5kt from 330° (240° ~ 40°)
ガスト
No gust
降水
報告なし
その他の天気
報告なし
少しの雲 @ 3000ft AGL

RJSC 050100Z 33005KT 240V040 9999 FEW030 32/25 Q1008

RJSF/FKS  -  福島

観測日時
2021-08-05 01:00 (UTC) (59分前)
気温
28
露点
25
湿数
3
相対湿度
83.8%
QNH
1010hPa
推定現地気圧
966.2hPa
推定海面気圧
1007.6hPa
体感温度
24.9
(無風時)
27.7
HI
32.7
気温前日比
-2
体感温度前日比
-1.6
HI前日比
-3.5
水平視程
>10000m
鉛直視程
データなし
雲底高度
No dense clouds
V/I
VMC (VFR)
RVR
No RVR data
卓越風
3kt from 270° (160° ~ 330°)
ガスト
No gust
降水
報告なし
その他の天気
報告なし
少しの雲 @ 1000ft AGL

RJSF 050100Z 27003KT 160V330 9999 FEW010 28/25 Q1010

4.4msec